Time;durP1;ratioP1;P1;durP2;ratioP2;P2;SDS_P1;SDS_P2;PMS_P1;PMS_P2;Temp;Humidity;BMP_temperature;BMP_pressure;BME280_temperature;BME280_humidity;BME280_pressure;Samples;Min_cycle;Max_cycle;Signal;HPM_P1;HPM_P2
2024/03/04 00:01:12;;;;;;;16.00;6.87;;;7.90;98.00;;;;;;5054070;28;20845;-91
2024/03/04 00:03:40;;;;;;;15.33;6.37;;;8.10;98.00;;;;;;5053254;28;20473;-90
2024/03/04 00:06:07;;;;;;;16.97;6.57;;;8.20;98.00;;;;;;5053491;28;20460;-90
2024/03/04 00:08:34;;;;;;;12.70;5.90;;;8.20;98.00;;;;;;5053528;28;20932;-90
2024/03/04 00:11:01;;;;;;;13.20;5.90;;;8.10;98.00;;;;;;5053604;28;20519;-90
2024/03/04 00:13:28;;;;;;;15.00;7.00;;;8.00;98.00;;;;;;5053297;28;20475;-91
2024/03/04 00:15:55;;;;;;;15.43;7.07;;;7.90;98.00;;;;;;5052964;28;20458;-90
2024/03/04 00:18:23;;;;;;;16.57;6.77;;;7.80;98.00;;;;;;5053718;28;20464;-91
2024/03/04 00:20:50;;;;;;;15.87;7.30;;;7.80;98.00;;;;;;5054106;28;20477;-91
2024/03/04 00:23:18;;;;;;;17.70;7.30;;;7.90;98.00;;;;;;5073113;28;20486;-88
2024/03/04 00:25:46;;;;;;;20.23;8.63;;;8.00;98.00;;;;;;5069702;28;20936;-90
2024/03/04 00:28:13;;;;;;;19.27;7.83;;;7.90;98.00;;;;;;5053297;28;21056;-89
2024/03/04 00:30:41;;;;;;;19.57;8.53;;;8.00;98.00;;;;;;5053350;28;20779;-91
2024/03/04 00:33:09;;;;;;;25.50;9.50;;;8.00;98.00;;;;;;5053419;28;20999;-90
2024/03/04 00:35:38;;;;;;;19.50;8.43;;;8.10;98.00;;;;;;5053032;28;20894;-91
2024/03/04 00:38:05;;;;;;;21.53;8.77;;;8.10;98.00;;;;;;5053066;28;20944;-89
2024/03/04 00:40:32;;;;;;;25.27;10.43;;;8.20;98.00;;;;;;5052910;28;20458;-91
2024/03/04 00:42:59;;;;;;;19.47;8.70;;;8.20;98.00;;;;;;5052770;28;20480;-89
2024/03/04 00:45:26;;;;;;;21.30;9.77;;;8.20;98.00;;;;;;5052689;28;20462;-91
2024/03/04 00:47:53;;;;;;;21.83;9.20;;;8.30;98.00;;;;;;5052917;28;20472;-89
2024/03/04 00:50:21;;;;;;;23.50;9.73;;;8.40;98.00;;;;;;5052933;28;20448;-92
2024/03/04 00:52:49;;;;;;;22.40;9.37;;;8.40;98.00;;;;;;5052950;28;20507;-90
2024/03/04 00:55:17;;;;;;;24.77;8.70;;;8.40;98.00;;;;;;5052439;28;20853;-91
2024/03/04 00:57:44;;;;;;;21.03;9.53;;;8.30;98.00;;;;;;5053057;28;20541;-90
2024/03/04 01:00:14;;;;;;;22.50;9.10;;;8.20;98.00;;;;;;5051631;28;20456;-92
2024/03/04 01:02:41;;;;;;;23.93;9.83;;;8.10;98.00;;;;;;5052599;28;20572;-91
2024/03/04 01:05:09;;;;;;;23.80;9.60;;;8.20;98.00;;;;;;5052299;28;20507;-91
2024/03/04 01:07:36;;;;;;;18.20;9.13;;;8.10;98.00;;;;;;5052556;28;20439;-90
2024/03/04 01:10:06;;;;;;;22.37;9.00;;;8.00;98.00;;;;;;5052090;28;20998;-91
2024/03/04 01:12:33;;;;;;;25.20;10.10;;;8.10;98.00;;;;;;5052542;28;20536;-91
2024/03/04 01:15:01;;;;;;;22.07;9.50;;;8.10;98.00;;;;;;5052555;28;20458;-90
2024/03/04 01:17:28;;;;;;;25.73;9.63;;;8.10;98.00;;;;;;5052858;28;20454;-91
2024/03/04 01:19:55;;;;;;;23.07;9.23;;;8.10;98.00;;;;;;5052313;28;20463;-91
2024/03/04 01:22:22;;;;;;;21.20;8.90;;;8.20;98.00;;;;;;5052121;28;20460;-89
2024/03/04 01:24:49;;;;;;;21.90;9.17;;;8.10;98.00;;;;;;5051842;28;20489;-90
2024/03/04 01:27:20;;;;;;;23.20;9.10;;;8.00;98.00;;;;;;5052550;28;20468;-90
2024/03/04 01:29:47;;;;;;;22.93;8.80;;;8.00;98.00;;;;;;5052520;28;20531;-90
2024/03/04 01:32:14;;;;;;;21.47;8.40;;;7.90;98.00;;;;;;5052116;28;20441;-90
2024/03/04 01:34:41;;;;;;;23.40;10.47;;;7.90;98.00;;;;;;5052195;28;20550;-91
2024/03/04 01:37:09;;;;;;;22.33;9.70;;;8.00;98.00;;;;;;5052414;28;20518;-89
2024/03/04 01:39:37;;;;;;;24.03;9.50;;;8.00;98.00;;;;;;5051910;28;20465;-90
2024/03/04 01:42:06;;;;;;;21.93;9.17;;;8.10;98.00;;;;;;5052397;28;20468;-91
2024/03/04 01:44:36;;;;;;;27.13;9.67;;;8.20;98.00;;;;;;5051709;28;20484;-89
2024/03/04 01:47:07;;;;;;;23.17;9.90;;;8.20;98.00;;;;;;5052142;28;20477;-90
2024/03/04 01:49:36;;;;;;;23.70;9.37;;;8.30;98.00;;;;;;5052228;28;20447;-91
2024/03/04 01:52:05;;;;;;;21.40;9.67;;;8.20;98.00;;;;;;5052504;28;20461;-91
2024/03/04 01:54:35;;;;;;;24.03;9.53;;;8.20;98.00;;;;;;5051631;28;20515;-90
2024/03/04 01:57:04;;;;;;;21.70;9.20;;;8.20;98.00;;;;;;5051980;28;20465;-90
2024/03/04 01:59:33;;;;;;;22.27;8.50;;;8.00;98.00;;;;;;5051883;28;20448;-90
2024/03/04 02:02:01;;;;;;;22.60;9.83;;;8.00;98.00;;;;;;5052099;28;20465;-89
2024/03/04 02:04:30;;;;;;;24.23;9.77;;;7.90;98.00;;;;;;5051634;28;20993;-89
2024/03/04 02:06:57;;;;;;;19.83;9.13;;;7.90;98.00;;;;;;5052228;28;20457;-90
2024/03/04 02:09:26;;;;;;;21.47;9.33;;;8.00;98.00;;;;;;5052197;28;20473;-90
2024/03/04 02:11:53;;;;;;;20.10;8.77;;;8.00;98.00;;;;;;5052336;28;20530;-90
2024/03/04 02:14:22;;;;;;;20.67;8.47;;;8.10;98.00;;;;;;5051673;28;20502;-90
2024/03/04 02:16:49;;;;;;;24.07;9.37;;;8.10;98.00;;;;;;5052453;28;20864;-90
2024/03/04 02:19:20;;;;;;;23.73;9.60;;;7.90;98.00;;;;;;5055847;28;20453;-89
2024/03/04 02:21:56;;;;;;;21.80;9.60;;;7.80;98.00;;;;;;5055851;28;20452;-90
2024/03/04 02:24:24;;;;;;;20.57;8.93;;;7.80;98.00;;;;;;5054502;28;20509;-89
2024/03/04 02:26:51;;;;;;;20.83;8.87;;;7.70;98.00;;;;;;5055803;28;20515;-90
2024/03/04 02:29:19;;;;;;;20.50;9.13;;;7.70;98.00;;;;;;5055894;28;20515;-89
2024/03/04 02:31:46;;;;;;;19.23;8.40;;;7.60;98.00;;;;;;5055755;28;20450;-89
2024/03/04 02:34:15;;;;;;;21.67;9.50;;;7.60;98.00;;;;;;5055393;28;20478;-89
2024/03/04 02:36:42;;;;;;;22.13;9.20;;;7.60;98.00;;;;;;5055915;28;20854;-90
2024/03/04 02:39:11;;;;;;;20.90;9.00;;;7.70;98.00;;;;;;5055453;28;20863;-90
2024/03/04 02:41:40;;;;;;;27.00;11.03;;;7.60;98.00;;;;;;5055735;28;20483;-90
2024/03/04 02:44:08;;;;;;;25.10;10.33;;;7.60;98.00;;;;;;5052996;28;20570;-90
2024/03/04 02:46:36;;;;;;;23.40;10.23;;;7.60;98.00;;;;;;5067489;28;20452;-90
2024/03/04 02:49:04;;;;;;;21.70;9.33;;;7.60;98.00;;;;;;5077680;28;20463;-90
2024/03/04 02:51:31;;;;;;;27.40;10.40;;;7.70;98.00;;;;;;5055662;28;20537;-89
2024/03/04 02:53:58;;;;;;;25.40;9.60;;;7.70;98.00;;;;;;5055216;28;20489;-90
2024/03/04 02:56:25;;;;;;;22.10;9.77;;;7.80;98.00;;;;;;5055385;28;20460;-90
2024/03/04 02:58:54;;;;;;;21.63;9.30;;;7.90;98.00;;;;;;5054947;28;20511;-90
2024/03/04 03:01:21;;;;;;;28.87;10.67;;;8.00;98.00;;;;;;5055335;28;20502;-90
2024/03/04 03:03:48;;;;;;;24.07;9.70;;;8.00;98.00;;;;;;5055212;28;20497;-90
2024/03/04 03:06:15;;;;;;;24.80;10.10;;;8.10;98.00;;;;;;5054462;28;20526;-89
2024/03/04 03:08:42;;;;;;;24.60;9.97;;;8.30;98.00;;;;;;5054772;28;20845;-89
2024/03/04 03:11:09;;;;;;;27.07;10.10;;;8.50;98.00;;;;;;5054931;28;20480;-89
2024/03/04 03:13:38;;;;;;;26.60;10.03;;;8.80;98.00;;;;;;5054536;28;20550;-89
2024/03/04 03:16:17;;;;;;;25.03;9.77;;;8.80;98.00;;;;;;5054174;28;20993;-89
2024/03/04 03:18:44;;;;;;;23.83;10.07;;;8.90;98.00;;;;;;5054926;28;20956;-89
2024/03/04 03:21:12;;;;;;;24.87;9.50;;;9.00;98.00;;;;;;5054509;28;20463;-89
2024/03/04 03:23:40;;;;;;;23.80;10.63;;;8.90;98.00;;;;;;5054575;28;20845;-89
2024/03/04 03:26:07;;;;;;;32.30;9.50;;;9.00;98.00;;;;;;5054321;28;20460;-89
2024/03/04 03:28:34;;;;;;;24.43;10.23;;;9.00;98.00;;;;;;5054338;28;20771;-89
2024/03/04 03:31:01;;;;;;;26.17;10.20;;;8.90;98.00;;;;;;5054651;28;20445;-90
2024/03/04 03:33:29;;;;;;;24.40;10.00;;;8.80;98.00;;;;;;5054110;28;20482;-90
2024/03/04 03:35:56;;;;;;;23.60;9.73;;;8.70;98.00;;;;;;5053975;28;20451;-89
2024/03/04 03:38:24;;;;;;;24.97;9.80;;;8.70;98.00;;;;;;5054205;28;20459;-89
2024/03/04 03:40:52;;;;;;;21.53;9.17;;;8.70;98.00;;;;;;5054561;28;20460;-90
2024/03/04 03:43:19;;;;;;;20.80;9.00;;;8.70;98.00;;;;;;5054090;28;21016;-89
2024/03/04 03:45:46;;;;;;;21.60;9.00;;;8.70;98.00;;;;;;5053800;28;20487;-90
2024/03/04 03:48:15;;;;;;;18.30;8.10;;;8.80;98.00;;;;;;5053928;28;20464;-89
2024/03/04 03:50:44;;;;;;;23.60;8.77;;;8.90;98.00;;;;;;5053884;28;20467;-90
2024/03/04 03:53:11;;;;;;;21.57;9.20;;;9.00;98.00;;;;;;5054215;28;20515;-89
2024/03/04 03:55:38;;;;;;;23.47;9.73;;;9.20;98.00;;;;;;5053487;28;20940;-90
2024/03/04 03:58:08;;;;;;;26.33;10.10;;;9.10;98.00;;;;;;5053826;28;20461;-90
2024/03/04 04:00:36;;;;;;;25.77;10.00;;;9.20;98.00;;;;;;5054125;28;20453;-89
2024/03/04 04:03:03;;;;;;;28.63;10.53;;;9.20;98.00;;;;;;5053590;28;20978;-89
2024/03/04 04:05:30;;;;;;;19.90;9.40;;;9.00;98.00;;;;;;5053012;28;20488;-90
2024/03/04 04:07:59;;;;;;;23.37;9.70;;;9.10;98.00;;;;;;5053657;28;20534;-89
2024/03/04 04:10:26;;;;;;;27.23;11.17;;;9.20;98.00;;;;;;5053533;28;20450;-90
2024/03/04 04:12:53;;;;;;;27.03;9.57;;;9.00;98.00;;;;;;5053906;28;20467;-90
2024/03/04 04:15:20;;;;;;;27.83;10.47;;;9.10;98.00;;;;;;5052882;28;20461;-89
2024/03/04 04:17:47;;;;;;;28.60;11.37;;;9.00;98.00;;;;;;5053644;28;20449;-89
2024/03/04 04:20:14;;;;;;;29.80;11.20;;;8.90;98.00;;;;;;5053367;28;20487;-90
2024/03/04 04:22:42;;;;;;;28.67;11.37;;;8.80;98.00;;;;;;5053279;28;20549;-88
2024/03/04 04:25:11;;;;;;;26.80;10.10;;;8.80;98.00;;;;;;5052792;28;20491;-90
2024/03/04 04:27:39;;;;;;;25.77;10.20;;;8.90;98.00;;;;;;5053555;28;20469;-90
2024/03/04 04:30:09;;;;;;;33.17;10.97;;;9.00;98.00;;;;;;5053640;28;20462;-89
2024/03/04 04:32:36;;;;;;;30.03;10.70;;;9.10;98.00;;;;;;5053189;28;20539;-89
2024/03/04 04:35:04;;;;;;;23.23;9.60;;;9.20;98.00;;;;;;5053002;28;20456;-89
2024/03/04 04:37:32;;;;;;;31.90;11.00;;;9.00;98.00;;;;;;5053615;28;20446;-89
2024/03/04 04:39:59;;;;;;;29.50;11.80;;;9.00;98.00;;;;;;5052528;28;20457;-89
2024/03/04 04:42:28;;;;;;;25.93;10.90;;;9.00;98.00;;;;;;5052902;28;20442;-89
2024/03/04 04:44:55;;;;;;;30.77;11.30;;;9.00;98.00;;;;;;5052711;28;21020;-89
2024/03/04 04:47:23;;;;;;;27.40;10.33;;;8.90;98.00;;;;;;5053025;28;20461;-89
2024/03/04 04:49:50;;;;;;;28.50;10.80;;;9.00;98.00;;;;;;5053086;28;20455;-89
2024/03/04 04:52:17;;;;;;;24.17;10.70;;;9.00;98.00;;;;;;5053146;28;20818;-89
2024/03/04 04:54:44;;;;;;;31.20;12.70;;;9.10;98.00;;;;;;5052327;28;20466;-89
2024/03/04 04:57:12;;;;;;;26.20;10.63;;;8.90;98.00;;;;;;5052866;28;20485;-90
2024/03/04 04:59:41;;;;;;;28.10;11.03;;;8.90;98.00;;;;;;5052174;28;20438;-90
2024/03/04 05:02:09;;;;;;;30.53;11.40;;;8.80;98.00;;;;;;5053056;28;20489;-89
2024/03/04 05:04:36;;;;;;;26.80;11.57;;;8.80;98.00;;;;;;5052954;28;20492;-90
2024/03/04 05:07:05;;;;;;;25.80;10.67;;;8.80;98.00;;;;;;5052715;28;20534;-89
2024/03/04 05:09:32;;;;;;;27.93;10.83;;;8.90;98.00;;;;;;5054734;28;20462;-90
2024/03/04 05:11:59;;;;;;;30.93;11.83;;;9.00;98.00;;;;;;5077813;28;20450;-89
2024/03/04 05:14:26;;;;;;;30.90;10.80;;;9.00;98.00;;;;;;5060199;28;20984;-89
2024/03/04 05:16:56;;;;;;;28.47;10.80;;;9.00;98.00;;;;;;5052946;28;20460;-89
2024/03/04 05:19:25;;;;;;;31.60;10.73;;;9.10;98.00;;;;;;5052570;28;20460;-89
2024/03/04 05:21:53;;;;;;;31.13;11.90;;;9.30;98.00;;;;;;5052692;28;20456;-89
2024/03/04 05:24:21;;;;;;;29.63;11.40;;;9.20;98.00;;;;;;5051986;28;20470;-89
2024/03/04 05:26:48;;;;;;;30.50;11.20;;;9.10;98.00;;;;;;5052395;28;20456;-90
2024/03/04 05:29:15;;;;;;;28.53;11.43;;;9.10;98.00;;;;;;5052693;28;20453;-90
2024/03/04 05:31:53;;;;;;;31.77;11.07;;;9.20;98.00;;;;;;5052407;28;21085;-89
2024/03/04 05:34:22;;;;;;;29.50;10.30;;;9.20;98.00;;;;;;5052035;28;20535;-88
2024/03/04 05:36:48;;;;;;;25.73;10.40;;;9.40;98.00;;;;;;5052615;28;20864;-89
2024/03/04 05:39:18;;;;;;;28.37;11.20;;;9.40;98.00;;;;;;5052265;28;20450;-90
2024/03/04 05:41:45;;;;;;;31.70;12.10;;;9.30;98.00;;;;;;5052391;28;20449;-89
2024/03/04 05:44:14;;;;;;;30.13;11.50;;;9.20;98.00;;;;;;5051870;28;20575;-89
2024/03/04 05:46:41;;;;;;;32.40;11.20;;;9.20;98.00;;;;;;5052605;28;20446;-90
2024/03/04 05:49:10;;;;;;;29.90;11.47;;;9.20;98.00;;;;;;5052264;28;20433;-89
2024/03/04 05:51:41;;;;;;;34.00;12.00;;;9.10;98.00;;;;;;5052542;28;20442;-89
2024/03/04 05:54:08;;;;;;;34.70;12.50;;;9.10;98.00;;;;;;5056040;28;20530;-90
2024/03/04 05:56:41;;;;;;;37.40;12.07;;;9.10;98.00;;;;;;5056264;28;20457;-89
2024/03/04 05:59:09;;;;;;;30.30;11.70;;;9.10;98.00;;;;;;5056153;28;20768;-89
2024/03/04 06:01:37;;;;;;;32.97;12.20;;;9.10;98.00;;;;;;5056315;28;20425;-90
2024/03/04 06:04:04;;;;;;;33.17;12.33;;;9.20;98.00;;;;;;5055731;28;20859;-89
2024/03/04 06:06:31;;;;;;;32.10;12.13;;;9.20;98.00;;;;;;5055831;28;20483;-89
2024/03/04 06:09:02;;;;;;;33.73;12.93;;;9.20;98.00;;;;;;5055820;28;20540;-90
2024/03/04 06:11:29;;;;;;;36.77;13.13;;;9.20;98.00;;;;;;5056074;28;20450;-89
2024/03/04 06:13:56;;;;;;;33.70;12.00;;;9.20;98.00;;;;;;5055952;28;20481;-89
2024/03/04 06:16:24;;;;;;;31.67;11.80;;;9.20;98.00;;;;;;5055214;28;20461;-89
2024/03/04 06:18:51;;;;;;;32.13;12.97;;;9.20;98.00;;;;;;5055543;28;20445;-89
2024/03/04 06:21:18;;;;;;;38.27;12.40;;;9.30;98.00;;;;;;5056031;28;20450;-89
2024/03/04 06:23:45;;;;;;;39.53;14.07;;;9.30;98.00;;;;;;5055771;28;20489;-90
2024/03/04 06:26:14;;;;;;;39.00;14.70;;;9.20;98.00;;;;;;5055037;28;20476;-89
2024/03/04 06:28:41;;;;;;;38.77;13.33;;;9.30;98.00;;;;;;5056396;28;20450;-88
2024/03/04 06:31:08;;;;;;;43.27;14.33;;;9.40;98.00;;;;;;5056838;28;20484;-89
2024/03/04 06:33:36;;;;;;;43.77;15.13;;;9.30;98.00;;;;;;5057693;28;20481;-90
2024/03/04 06:36:03;;;;;;;45.67;14.37;;;9.10;98.00;;;;;;5056744;28;20945;-90
2024/03/04 06:38:30;;;;;;;45.80;15.40;;;9.00;98.00;;;;;;5054890;28;20457;-89
2024/03/04 06:40:57;;;;;;;47.40;14.47;;;8.90;98.00;;;;;;5055743;28;20457;-89
2024/03/04 06:43:26;;;;;;;39.20;14.50;;;8.90;98.00;;;;;;5055256;28;20476;-89
2024/03/04 06:45:54;;;;;;;43.57;14.97;;;9.10;98.00;;;;;;5055032;28;20526;-90
2024/03/04 06:48:21;;;;;;;44.57;14.80;;;9.10;98.00;;;;;;5055117;28;20461;-89
2024/03/04 06:50:48;;;;;;;39.40;14.03;;;9.20;98.00;;;;;;5055444;28;20452;-91
2024/03/04 06:53:15;;;;;;;42.10;15.00;;;9.20;98.00;;;;;;5055345;28;20501;-89
2024/03/04 06:55:42;;;;;;;44.97;15.37;;;9.20;98.00;;;;;;5055486;28;20874;-90
2024/03/04 06:58:09;;;;;;;39.23;15.70;;;9.30;98.00;;;;;;5054797;28;20464;-89
2024/03/04 07:00:38;;;;;;;43.07;16.13;;;9.40;98.00;;;;;;5054838;28;20507;-88
2024/03/04 07:03:06;;;;;;;41.97;15.20;;;9.50;98.00;;;;;;5054320;28;20508;-89
2024/03/04 07:05:34;;;;;;;43.70;16.43;;;9.40;98.00;;;;;;5054575;28;20474;-88
2024/03/04 07:08:01;;;;;;;42.33;15.47;;;9.40;98.00;;;;;;5054664;28;20460;-89
2024/03/04 07:10:28;;;;;;;48.27;14.90;;;9.50;98.00;;;;;;5054396;28;20462;-88
2024/03/04 07:12:55;;;;;;;38.13;14.43;;;9.40;98.00;;;;;;5054392;28;20469;-89
2024/03/04 07:15:22;;;;;;;37.20;14.47;;;9.50;98.00;;;;;;5054193;28;20452;-90
2024/03/04 07:17:50;;;;;;;42.27;14.23;;;9.40;98.00;;;;;;5054719;28;20462;-89
2024/03/04 07:20:18;;;;;;;40.53;15.60;;;9.50;98.00;;;;;;5054826;28;20796;-89
2024/03/04 07:22:46;;;;;;;41.50;15.70;;;9.50;98.00;;;;;;5054886;28;20466;-89
2024/03/04 07:25:13;;;;;;;39.80;14.07;;;9.30;98.00;;;;;;5054190;28;20488;-88
2024/03/04 07:27:41;;;;;;;42.60;15.33;;;9.30;98.00;;;;;;5054678;28;20453;-89
2024/03/04 07:30:10;;;;;;;40.47;13.83;;;9.40;98.00;;;;;;5054253;28;20501;-89
2024/03/04 07:32:37;;;;;;;45.30;15.50;;;9.40;98.00;;;;;;5054540;28;20519;-89
2024/03/04 07:35:06;;;;;;;49.23;16.20;;;9.50;98.00;;;;;;5053929;28;20481;-88
2024/03/04 07:37:38;;;;;;;45.87;15.40;;;9.50;98.00;;;;;;5061940;28;20454;-87
2024/03/04 10:11:10;;;;;;;59.07;15.90;;;9.60;98.00;;;;;;5043295;23;20911;-79
2024/03/04 10:13:37;;;;;;;58.63;16.87;;;9.60;98.00;;;;;;4991298;28;20482;-79
2024/03/04 10:16:09;;;;;;;54.30;16.27;;;9.60;98.00;;;;;;4991578;28;20495;-76
2024/03/04 10:18:36;;;;;;;51.13;17.37;;;9.60;98.00;;;;;;4991624;28;20475;-76
2024/03/04 10:21:04;;;;;;;62.53;17.20;;;9.70;98.00;;;;;;4991696;28;20527;-77
2024/03/04 10:23:31;;;;;;;58.10;16.80;;;9.80;98.00;;;;;;4991967;28;20454;-77
2024/03/04 10:26:09;;;;;;;58.17;17.20;;;9.80;98.00;;;;;;4991483;28;20577;-77
2024/03/04 10:28:38;;;;;;;55.10;16.50;;;9.80;98.00;;;;;;4991354;28;20693;-76
2024/03/04 10:31:10;;;;;;;55.40;15.43;;;9.90;98.00;;;;;;4991409;28;20484;-76
2024/03/04 10:33:37;;;;;;;51.47;16.47;;;10.00;98.00;;;;;;4991515;28;20547;-76
2024/03/04 10:36:17;;;;;;;55.07;16.80;;;10.10;98.00;;;;;;4991592;28;20459;-76
2024/03/04 10:38:46;;;;;;;58.03;16.90;;;10.10;98.00;;;;;;4975558;28;20467;-77
2024/03/04 10:41:23;;;;;;;60.47;17.60;;;10.10;98.00;;;;;;4994847;28;20455;-78
2024/03/04 10:43:51;;;;;;;57.80;15.70;;;10.10;98.00;;;;;;4994096;28;20996;-77
2024/03/04 10:46:20;;;;;;;59.60;17.63;;;10.20;98.00;;;;;;4994855;28;20492;-77
2024/03/04 10:48:48;;;;;;;54.33;15.70;;;10.10;98.00;;;;;;4994610;28;20459;-77
2024/03/04 10:51:17;;;;;;;65.90;17.30;;;10.00;98.00;;;;;;4994680;28;20462;-76
2024/03/04 10:53:45;;;;;;;53.93;15.97;;;10.00;98.00;;;;;;4994636;28;20673;-77
2024/03/04 10:56:15;;;;;;;53.00;16.10;;;10.10;98.00;;;;;;4994863;28;20479;-76
2024/03/04 10:58:45;;;;;;;54.17;16.27;;;10.10;98.00;;;;;;4994519;28;20456;-78
2024/03/04 11:01:17;;;;;;;58.63;17.00;;;10.10;98.00;;;;;;4977054;28;20456;-77
2024/03/04 11:03:59;;;;;;;58.57;16.40;;;10.10;98.00;;;;;;4994422;28;20468;-77
2024/03/04 11:06:29;;;;;;;60.17;15.90;;;10.20;98.00;;;;;;4994228;28;20997;-77
2024/03/04 11:08:57;;;;;;;63.00;17.33;;;10.20;98.00;;;;;;4994182;28;20469;-77
2024/03/04 11:11:30;;;;;;;58.03;18.17;;;10.30;98.00;;;;;;4994233;28;20468;-76
2024/03/04 11:14:08;;;;;;;52.63;16.00;;;10.30;98.00;;;;;;4996499;28;20519;-77
2024/03/04 11:16:43;;;;;;;58.37;16.57;;;10.40;98.00;;;;;;5014596;28;20469;-77
2024/03/04 11:19:19;;;;;;;56.30;17.80;;;10.50;98.00;;;;;;5014586;28;20509;-77
2024/03/04 11:21:49;;;;;;;63.37;16.70;;;10.50;98.00;;;;;;5013703;28;20538;-77
2024/03/04 11:24:17;;;;;;;53.03;16.73;;;10.60;98.00;;;;;;4996507;28;20459;-76
2024/03/04 11:26:45;;;;;;;60.67;17.40;;;10.50;98.00;;;;;;5013632;28;20487;-77
2024/03/04 11:29:15;;;;;;;53.93;17.00;;;10.50;98.00;;;;;;5013534;28;20480;-77
2024/03/04 11:31:53;;;;;;;64.77;19.37;;;10.60;98.00;;;;;;5013402;28;20455;-77
2024/03/04 11:34:20;;;;;;;56.23;16.27;;;10.40;98.00;;;;;;5013390;28;21056;-78
2024/03/04 11:36:49;;;;;;;54.70;17.00;;;10.40;98.00;;;;;;5013321;28;20468;-77
2024/03/04 11:39:20;;;;;;;57.33;18.23;;;10.20;98.00;;;;;;5013642;28;20945;-76
2024/03/04 11:41:49;;;;;;;53.37;16.00;;;10.20;98.00;;;;;;5011916;28;21194;-76
2024/03/04 11:44:26;;;;;;;53.57;17.47;;;10.20;98.00;;;;;;4995943;28;20865;-77
2024/03/04 11:46:54;;;;;;;62.20;17.80;;;10.30;98.00;;;;;;5013165;28;20800;-76
2024/03/04 11:49:24;;;;;;;52.43;16.87;;;10.40;98.00;;;;;;5012519;28;20451;-76
2024/03/04 11:52:03;;;;;;;56.87;17.10;;;10.50;98.00;;;;;;5012785;28;20879;-76
2024/03/04 11:54:49;;;;;;;58.30;18.00;;;10.60;98.00;;;;;;4996542;28;21046;-75
2024/03/04 11:57:17;;;;;;;55.80;17.40;;;10.70;98.00;;;;;;5012275;28;20550;-73
2024/03/04 12:00:00;;;;;;;52.50;17.40;;;10.80;98.00;;;;;;5013853;28;20453;-74
2024/03/04 12:02:27;;;;;;;52.20;16.80;;;10.90;98.00;;;;;;4996902;28;20464;-74
2024/03/04 12:04:55;;;;;;;66.67;18.23;;;10.90;98.00;;;;;;5014091;28;20454;-75
2024/03/04 12:07:22;;;;;;;57.93;17.53;;;10.90;98.00;;;;;;5013867;28;20487;-75
2024/03/04 12:09:49;;;;;;;55.47;18.20;;;10.90;98.00;;;;;;5013483;28;20464;-75
2024/03/04 12:12:17;;;;;;;66.37;17.17;;;10.80;98.00;;;;;;5013767;28;20451;-74
2024/03/04 12:14:45;;;;;;;58.60;18.40;;;10.70;98.00;;;;;;5013560;28;20457;-76
2024/03/04 12:17:16;;;;;;;54.77;17.93;;;10.60;98.00;;;;;;5013721;28;20464;-77
2024/03/04 12:19:53;;;;;;;64.50;18.33;;;10.60;98.00;;;;;;4996018;28;20463;-77
2024/03/04 12:22:25;;;;;;;60.07;17.13;;;10.60;98.00;;;;;;5013614;28;20509;-75
2024/03/04 12:25:03;;;;;;;61.13;18.20;;;10.40;98.00;;;;;;5012499;28;20488;-77
2024/03/04 12:27:31;;;;;;;62.10;18.90;;;10.40;98.00;;;;;;5011474;28;20562;-76
2024/03/04 12:30:14;;;;;;;55.10;17.17;;;10.30;98.00;;;;;;5011588;28;20451;-76
2024/03/04 12:32:45;;;;;;;57.40;18.30;;;10.20;98.00;;;;;;5011388;28;20465;-76
2024/03/04 12:35:16;;;;;;;61.10;17.87;;;10.10;98.00;;;;;;5011536;28;20524;-76
2024/03/04 12:37:44;;;;;;;60.20;18.37;;;10.00;98.00;;;;;;5011362;28;20456;-76
2024/03/04 12:40:13;;;;;;;71.50;19.10;;;10.10;98.00;;;;;;5011354;28;20504;-76
2024/03/04 12:42:40;;;;;;;66.07;19.57;;;10.10;98.00;;;;;;5012177;28;20454;-76
2024/03/04 12:45:08;;;;;;;57.70;19.17;;;10.00;98.00;;;;;;5012227;28;20463;-78
2024/03/04 12:47:35;;;;;;;58.77;18.00;;;10.00;98.00;;;;;;5013214;28;20484;-77
2024/03/04 12:50:10;;;;;;;62.80;20.03;;;10.10;98.00;;;;;;5012835;28;20455;-75
2024/03/04 12:52:37;;;;;;;69.77;19.37;;;10.10;98.00;;;;;;5013274;28;20507;-76
2024/03/04 12:55:13;;;;;;;51.27;17.40;;;10.00;98.00;;;;;;4995489;28;20447;-76
2024/03/04 12:57:40;;;;;;;59.83;17.03;;;9.90;98.00;;;;;;5011853;28;20862;-76
2024/03/04 13:00:12;;;;;;;58.53;17.63;;;9.90;98.00;;;;;;4994653;28;20459;-76
2024/03/04 13:02:40;;;;;;;57.47;18.20;;;9.90;98.00;;;;;;5011461;28;20953;-77
2024/03/04 13:05:09;;;;;;;54.87;17.50;;;10.00;98.00;;;;;;5010314;28;20464;-76
2024/03/04 13:07:37;;;;;;;56.13;17.53;;;10.00;98.00;;;;;;5010207;28;20490;-77
2024/03/04 13:10:06;;;;;;;59.67;18.33;;;10.10;98.00;;;;;;5011452;28;20862;-77
2024/03/04 13:12:35;;;;;;;49.70;17.37;;;10.20;98.00;;;;;;5013118;28;20883;-76
2024/03/04 13:15:05;;;;;;;57.87;17.70;;;10.30;98.00;;;;;;5011657;28;20544;-77
2024/03/04 13:17:34;;;;;;;53.60;17.10;;;10.20;98.00;;;;;;5011164;28;20462;-76
2024/03/04 13:20:02;;;;;;;55.67;16.70;;;10.20;98.00;;;;;;4993460;28;20462;-75
2024/03/04 13:22:34;;;;;;;56.63;16.40;;;10.30;98.00;;;;;;4991544;28;20455;-75
2024/03/04 13:25:01;;;;;;;59.00;17.20;;;10.40;98.00;;;;;;5000397;28;20455;-76
2024/03/04 13:27:30;;;;;;;57.13;18.50;;;10.40;98.00;;;;;;5011051;28;20558;-76
2024/03/04 13:29:58;;;;;;;57.47;16.70;;;10.50;98.00;;;;;;5011176;28;20458;-75
2024/03/04 13:32:25;;;;;;;52.43;16.73;;;10.50;98.00;;;;;;5011501;28;20448;-75
2024/03/04 13:34:52;;;;;;;51.67;16.37;;;10.60;98.00;;;;;;5011572;28;20509;-75
2024/03/04 13:37:19;;;;;;;58.17;16.80;;;10.50;98.00;;;;;;5012016;28;20454;-76
2024/03/04 13:39:47;;;;;;;46.10;15.77;;;10.50;98.00;;;;;;5011944;28;20456;-75
2024/03/04 13:42:14;;;;;;;46.03;15.50;;;10.40;98.00;;;;;;5011634;28;20459;-74
2024/03/04 13:44:42;;;;;;;53.17;15.87;;;10.50;98.00;;;;;;5011702;28;20573;-76
2024/03/04 13:47:09;;;;;;;47.37;14.90;;;10.50;98.00;;;;;;5011683;28;20927;-73
2024/03/04 13:49:37;;;;;;;43.70;14.20;;;10.50;98.00;;;;;;5011875;28;20457;-76
2024/03/04 13:52:04;;;;;;;45.70;14.17;;;10.50;98.00;;;;;;5011631;28;20447;-75
2024/03/04 13:54:33;;;;;;;38.87;13.70;;;10.40;98.00;;;;;;5011467;28;20475;-76
2024/03/04 13:57:03;;;;;;;38.93;13.57;;;10.40;98.00;;;;;;5010907;28;20534;-77
2024/03/04 13:59:30;;;;;;;40.93;14.10;;;10.50;98.00;;;;;;5011963;28;20456;-75
2024/03/04 14:01:57;;;;;;;39.83;13.70;;;10.40;98.00;;;;;;5011727;28;20820;-75
2024/03/04 14:04:24;;;;;;;36.77;11.87;;;10.40;98.00;;;;;;5011634;28;20542;-76
2024/03/04 14:06:53;;;;;;;36.00;13.07;;;10.30;98.00;;;;;;5011273;28;20864;-75
2024/03/04 14:09:20;;;;;;;37.20;12.53;;;10.30;98.00;;;;;;5011156;28;20740;-76
2024/03/04 14:11:48;;;;;;;38.63;12.60;;;10.30;98.00;;;;;;5011173;28;20455;-76
2024/03/04 14:14:17;;;;;;;35.90;11.90;;;10.30;98.00;;;;;;5013455;28;20458;-76
2024/03/04 14:16:48;;;;;;;35.13;12.07;;;10.30;98.00;;;;;;5014956;28;20931;-76
2024/03/04 14:19:16;;;;;;;41.40;12.70;;;10.40;98.00;;;;;;5015317;28;20459;-76
2024/03/04 14:21:43;;;;;;;33.90;12.60;;;10.40;98.00;;;;;;5014843;28;20467;-75
2024/03/04 14:24:10;;;;;;;35.07;11.50;;;10.40;98.00;;;;;;5014946;28;20975;-76
2024/03/04 14:26:38;;;;;;;34.00;11.43;;;10.40;98.00;;;;;;4997429;28;20477;-76
2024/03/04 14:29:05;;;;;;;31.13;11.30;;;10.50;98.00;;;;;;5014766;28;20975;-75
2024/03/04 14:31:33;;;;;;;40.20;12.50;;;10.50;98.00;;;;;;5014779;28;20463;-75
2024/03/04 14:34:00;;;;;;;33.57;12.20;;;10.60;98.00;;;;;;5014980;28;20832;-75
2024/03/04 14:36:28;;;;;;;32.87;12.13;;;10.60;98.00;;;;;;5014806;28;20455;-77
2024/03/04 14:38:56;;;;;;;35.63;12.87;;;10.70;98.00;;;;;;5014672;28;20454;-76
2024/03/04 14:41:23;;;;;;;30.13;11.07;;;10.70;98.00;;;;;;5014734;28;20456;-76
2024/03/04 14:43:50;;;;;;;32.00;12.07;;;10.70;98.00;;;;;;5014446;28;20455;-76
2024/03/04 14:46:17;;;;;;;30.57;10.60;;;10.80;98.00;;;;;;5014488;28;20463;-75
2024/03/04 14:48:45;;;;;;;28.70;10.30;;;10.80;98.00;;;;;;4996911;28;20494;-76
2024/03/04 14:51:14;;;;;;;31.80;10.63;;;10.80;98.00;;;;;;5014138;28;21015;-75
2024/03/04 14:53:41;;;;;;;33.50;11.03;;;10.80;98.00;;;;;;5014246;28;20466;-77
2024/03/04 14:56:08;;;;;;;29.30;10.87;;;10.90;98.00;;;;;;5014100;28;20459;-76
2024/03/04 14:58:35;;;;;;;34.30;11.50;;;10.80;98.00;;;;;;4980490;28;20449;-75
2024/03/04 15:01:07;;;;;;;32.93;11.60;;;10.80;98.00;;;;;;5014034;28;20474;-76
2024/03/04 15:03:34;;;;;;;28.20;10.33;;;10.80;98.00;;;;;;4997019;28;20534;-75
2024/03/04 15:06:04;;;;;;;28.53;11.07;;;10.80;98.00;;;;;;5014062;28;20453;-77
2024/03/04 15:08:33;;;;;;;33.43;11.47;;;10.80;98.00;;;;;;5013739;28;21010;-77
2024/03/04 15:11:10;;;;;;;31.13;12.43;;;10.80;98.00;;;;;;5013666;28;20463;-77
2024/03/04 15:13:39;;;;;;;33.67;11.50;;;10.80;98.00;;;;;;5014286;28;20524;-75